createdAt,value
2022-11-16T00:04:50.112Z,1004.28
2022-11-16T00:09:57.354Z,1004.32
2022-11-16T00:15:04.494Z,1004.27
2022-11-16T00:20:11.760Z,1004.36
2022-11-16T00:25:18.937Z,1004.43
2022-11-16T00:30:26.116Z,1004.40
2022-11-16T00:35:33.328Z,1004.43
2022-11-16T00:40:40.592Z,1004.48
2022-11-16T00:45:47.730Z,1004.45
2022-11-16T00:50:54.973Z,1004.48
2022-11-16T00:56:02.266Z,1004.41
2022-11-16T01:01:09.628Z,1004.39
2022-11-16T01:06:16.675Z,1004.36
2022-11-16T01:11:23.860Z,1004.37
2022-11-16T01:16:31.082Z,1004.35
2022-11-16T01:21:38.268Z,1004.42
2022-11-16T01:26:45.449Z,1004.35
2022-11-16T01:31:52.619Z,1004.37
2022-11-16T01:36:59.791Z,1004.40
2022-11-16T01:42:07.013Z,1004.39
2022-11-16T01:47:14.186Z,1004.40
2022-11-16T01:52:21.450Z,1004.45
2022-11-16T01:57:28.716Z,1004.57
2022-11-16T02:02:35.894Z,1004.73
2022-11-16T02:07:43.108Z,1004.90
2022-11-16T02:12:50.321Z,1005.01
2022-11-16T02:17:57.567Z,1005.22
2022-11-16T02:23:04.714Z,1005.37
2022-11-16T02:28:12.063Z,1005.35
2022-11-16T02:33:19.233Z,1005.37
2022-11-16T02:38:26.448Z,1005.39
2022-11-16T02:43:33.729Z,1005.39
2022-11-16T02:48:40.938Z,1005.35
2022-11-16T02:53:48.253Z,1005.25
2022-11-16T02:58:55.689Z,1005.23
2022-11-16T03:04:02.894Z,1005.26
2022-11-16T03:09:10.138Z,1005.24
2022-11-16T03:14:17.333Z,1005.22
2022-11-16T03:19:24.526Z,1005.23
2022-11-16T03:24:31.683Z,1005.28
2022-11-16T03:29:38.919Z,1005.34
2022-11-16T03:34:46.196Z,1005.43
2022-11-16T03:39:53.418Z,1005.43
2022-11-16T03:45:00.616Z,1005.52
2022-11-16T03:50:07.818Z,1005.54
2022-11-16T03:55:15.042Z,1005.46
2022-11-16T04:00:22.387Z,1005.46
2022-11-16T04:05:29.625Z,1005.46
2022-11-16T04:10:36.911Z,1005.48
2022-11-16T04:15:44.173Z,1005.38
2022-11-16T04:20:51.351Z,1005.49
2022-11-16T04:25:58.546Z,1005.28
2022-11-16T04:31:05.884Z,1005.32
2022-11-16T04:36:17.884Z,1005.30
2022-11-16T04:41:20.397Z,1005.22
2022-11-16T04:46:27.643Z,1005.13
2022-11-16T04:51:34.804Z,1005.05
2022-11-16T04:56:41.983Z,1005.14
2022-11-16T05:01:49.324Z,1005.16
2022-11-16T05:06:56.474Z,1005.06
2022-11-16T05:12:03.664Z,1005.02
2022-11-16T05:17:10.956Z,1004.94
2022-11-16T05:22:18.116Z,1004.97
2022-11-16T05:27:25.310Z,1004.95
2022-11-16T05:32:32.523Z,1004.87
2022-11-16T05:37:39.716Z,1004.73
2022-11-16T05:42:46.963Z,1004.76
2022-11-16T05:47:54.226Z,1004.82
2022-11-16T05:53:03.086Z,1004.77
2022-11-16T05:58:10.345Z,1004.82
2022-11-16T06:03:17.720Z,1004.81
2022-11-16T06:08:24.828Z,1004.94
2022-11-16T06:13:33.106Z,1005.05
2022-11-16T06:18:40.474Z,1004.99
2022-11-16T06:23:47.449Z,1005.15
2022-11-16T06:28:54.694Z,1005.15
2022-11-16T06:34:02.068Z,1005.13
2022-11-16T06:39:09.208Z,1005.14
2022-11-16T06:44:16.381Z,1005.09
2022-11-16T06:49:23.646Z,1005.16
2022-11-16T06:54:30.877Z,1005.15
2022-11-16T06:59:39.760Z,1005.18
2022-11-16T07:04:47.287Z,1005.17
2022-11-16T07:09:54.204Z,1005.31
2022-11-16T07:15:01.395Z,1005.35
2022-11-16T07:20:08.846Z,1005.40
2022-11-16T07:25:15.796Z,1005.41
2022-11-16T07:30:23.021Z,1005.34
2022-11-16T07:35:30.323Z,1005.37
2022-11-16T07:40:37.468Z,1005.54
2022-11-16T07:45:44.716Z,1005.48
2022-11-16T07:50:52.129Z,1005.62
2022-11-16T07:55:59.042Z,1005.68
2022-11-16T08:01:06.238Z,1005.76
2022-11-16T08:06:13.509Z,1005.74
2022-11-16T08:11:20.741Z,1005.71
2022-11-16T08:16:28.020Z,1005.73
2022-11-16T08:21:35.342Z,1005.63
2022-11-16T08:26:42.443Z,1005.65
2022-11-16T08:31:49.698Z,1005.77
2022-11-16T08:36:57.100Z,1005.73
2022-11-16T08:42:04.200Z,1005.73
2022-11-16T08:47:11.419Z,1005.82
2022-11-16T08:52:18.760Z,1005.95
2022-11-16T08:57:25.880Z,1005.94
2022-11-16T09:02:33.145Z,1005.99
2022-11-16T09:07:40.519Z,1005.99
2022-11-16T09:12:47.580Z,1006.07
2022-11-16T09:17:54.857Z,1006.14
2022-11-16T09:23:02.245Z,1006.06
2022-11-16T09:28:09.330Z,1006.05
2022-11-16T09:33:16.572Z,1006.03
2022-11-16T09:38:34.897Z,1006.02
2022-11-16T09:43:31.465Z,1006.05
2022-11-16T09:48:38.392Z,1006.05
2022-11-16T09:53:45.595Z,1006.03
2022-11-16T09:58:52.804Z,1005.97
2022-11-16T10:04:00.041Z,1006.00
2022-11-16T10:09:07.367Z,1005.98
2022-11-16T10:14:14.431Z,1005.95
2022-11-16T10:19:21.636Z,1005.83
2022-11-16T10:24:28.994Z,1005.85
2022-11-16T10:29:36.268Z,1005.66
2022-11-16T10:34:43.468Z,1005.64
2022-11-16T10:39:50.942Z,1005.62
2022-11-16T10:44:58.204Z,1005.60
2022-11-16T10:50:05.434Z,1005.44
2022-11-16T10:55:12.767Z,1005.37
2022-11-16T11:00:27.017Z,1005.26
2022-11-16T11:05:27.441Z,1005.24
2022-11-16T11:10:34.989Z,1005.23
2022-11-16T11:15:42.187Z,1005.19
2022-11-16T11:20:49.786Z,1005.12
2022-11-16T11:25:57.129Z,1005.16
2022-11-16T11:31:04.366Z,1005.10
2022-11-16T11:36:11.737Z,1005.09
2022-11-16T11:41:19.152Z,1005.05
2022-11-16T11:46:47.333Z,1004.99
2022-11-16T11:51:33.507Z,1004.89
2022-11-16T11:56:40.841Z,1004.94
2022-11-16T12:01:48.070Z,1004.95
2022-11-16T12:06:55.363Z,1004.94
2022-11-16T12:12:02.623Z,1004.99
2022-11-16T12:17:09.795Z,1005.01
2022-11-16T12:22:17.046Z,1004.98
2022-11-16T12:27:24.444Z,1004.93
2022-11-16T12:32:31.551Z,1004.90
2022-11-16T12:37:38.855Z,1004.83
2022-11-16T12:42:46.166Z,1004.70
2022-11-16T12:47:53.262Z,1004.61
2022-11-16T12:53:00.466Z,1004.60
2022-11-16T12:58:07.920Z,1004.49
2022-11-16T13:03:15.072Z,1004.46
2022-11-16T13:08:22.302Z,1004.45
2022-11-16T13:13:36.292Z,1004.50
2022-11-16T13:18:36.794Z,1004.45
2022-11-16T13:23:45.102Z,1004.46
2022-11-16T13:28:52.357Z,1004.49
2022-11-16T13:33:59.506Z,1004.53
2022-11-16T13:39:06.778Z,1004.51
2022-11-16T13:44:14.189Z,1004.45
2022-11-16T13:49:21.218Z,1004.36
2022-11-16T13:54:46.116Z,1004.29
2022-11-16T13:59:35.751Z,1004.17
2022-11-16T14:04:42.856Z,1004.09
2022-11-16T14:09:50.053Z,1004.04
2022-11-16T14:15:03.291Z,1003.98
2022-11-16T14:20:04.572Z,1003.96
2022-11-16T14:25:11.854Z,1003.88
2022-11-16T14:30:19.144Z,1003.92
2022-11-16T14:35:26.317Z,1003.94
2022-11-16T14:40:33.580Z,1004.09
2022-11-16T14:45:40.946Z,1004.08
2022-11-16T14:50:48.110Z,1004.05
2022-11-16T14:55:55.388Z,1003.97
2022-11-16T15:01:02.746Z,1003.89
2022-11-16T15:06:09.921Z,1003.85
2022-11-16T15:11:17.123Z,1003.91
2022-11-16T15:16:24.507Z,1003.96
2022-11-16T15:21:31.600Z,1003.84
2022-11-16T15:26:38.808Z,1003.75
2022-11-16T15:31:46.106Z,1003.86
2022-11-16T15:36:53.299Z,1003.85
2022-11-16T15:42:03.808Z,1003.82
2022-11-16T15:47:07.870Z,1003.80
2022-11-16T15:52:14.969Z,1003.69
2022-11-16T15:57:22.241Z,1003.72
2022-11-16T16:02:29.598Z,1003.61
2022-11-16T16:07:36.783Z,1003.54
2022-11-16T16:12:43.963Z,1003.49
2022-11-16T16:17:51.208Z,1003.39
2022-11-16T16:22:58.394Z,1003.31
2022-11-16T16:28:05.676Z,1003.28
2022-11-16T16:33:12.983Z,1003.30
2022-11-16T16:38:20.208Z,1003.16
2022-11-16T16:43:27.704Z,1003.11
2022-11-16T16:48:39.105Z,1003.11
2022-11-16T16:53:42.794Z,1003.23
2022-11-16T16:58:50.257Z,1003.22
2022-11-16T17:03:57.894Z,1003.28
2022-11-16T17:09:05.473Z,1003.34
2022-11-16T17:14:13.185Z,1003.30
2022-11-16T17:19:21.448Z,1003.31
2022-11-16T17:24:28.933Z,1003.19
2022-11-16T17:29:36.344Z,1003.20
2022-11-16T17:34:44.476Z,1003.22
2022-11-16T17:39:51.774Z,1003.19
2022-11-16T17:44:59.481Z,1003.15
2022-11-16T17:50:10.519Z,1003.13
2022-11-16T17:55:17.892Z,1003.09
2022-11-16T18:00:25.411Z,1003.17
2022-11-16T18:05:33.132Z,1003.21
2022-11-16T18:10:40.436Z,1003.17
2022-11-16T18:15:48.038Z,1003.08
2022-11-16T18:20:55.541Z,1003.11
2022-11-16T18:26:03.059Z,1003.01
2022-11-16T18:31:10.788Z,1003.03
2022-11-16T18:36:18.257Z,1003.03
2022-11-16T18:41:25.698Z,1003.01
2022-11-16T18:46:33.046Z,1002.79
2022-11-16T18:51:41.742Z,1002.69
2022-11-16T18:56:49.372Z,1002.54
2022-11-16T19:01:56.689Z,1002.43
2022-11-16T19:07:04.344Z,1002.29
2022-11-16T19:12:11.905Z,1002.18
2022-11-16T19:17:19.615Z,1001.98
2022-11-16T19:22:27.320Z,1001.96
2022-11-16T19:27:34.852Z,1001.80
2022-11-16T19:32:42.659Z,1001.87
2022-11-16T19:37:50.882Z,1001.82
2022-11-16T19:42:58.818Z,1001.76
2022-11-16T19:48:07.145Z,1001.75
2022-11-16T19:53:15.101Z,1001.82
2022-11-16T19:58:22.383Z,1001.79
2022-11-16T20:03:29.885Z,1001.81
2022-11-16T20:08:37.623Z,1002.07
2022-11-16T20:13:45.217Z,1002.16
2022-11-16T20:18:52.931Z,1002.20
2022-11-16T20:24:06.042Z,1002.10
2022-11-16T20:29:08.258Z,1001.92
2022-11-16T20:34:15.781Z,1001.73
2022-11-16T20:39:23.418Z,1001.53
2022-11-16T20:44:30.746Z,1001.46
2022-11-16T20:49:38.304Z,1001.43
2022-11-16T20:54:45.934Z,1001.42
2022-11-16T20:59:53.441Z,1001.50
2022-11-16T21:05:01.193Z,1001.43
2022-11-16T21:10:08.525Z,1001.34
2022-11-16T21:15:15.691Z,1001.30
2022-11-16T21:20:27.789Z,1001.19
2022-11-16T21:25:30.342Z,1001.20
2022-11-16T21:30:37.390Z,1001.17
2022-11-16T21:35:44.566Z,1001.18
2022-11-16T21:40:51.917Z,1001.05
2022-11-16T21:45:58.976Z,1001.12
2022-11-16T21:51:06.135Z,1001.05
2022-11-16T21:56:13.461Z,1000.97
2022-11-16T22:01:20.591Z,1000.88
2022-11-16T22:06:27.742Z,1000.90
2022-11-16T22:11:35.024Z,1000.79
2022-11-16T22:16:42.347Z,1000.82
2022-11-16T22:21:49.518Z,1000.90
2022-11-16T22:26:56.883Z,1000.89
2022-11-16T22:32:03.959Z,1000.90
2022-11-16T22:37:11.196Z,1000.78
2022-11-16T22:42:18.391Z,1000.65
2022-11-16T22:47:25.534Z,1000.67
2022-11-16T22:52:32.709Z,1000.53
2022-11-16T22:57:40.620Z,1000.35
2022-11-16T23:02:47.790Z,1000.44
2022-11-16T23:07:55.008Z,1000.40
2022-11-16T23:13:02.459Z,1000.25
2022-11-16T23:18:09.614Z,1000.25
2022-11-16T23:23:16.835Z,1000.27
2022-11-16T23:28:24.018Z,1000.25
2022-11-16T23:33:31.241Z,1000.25
2022-11-16T23:38:38.482Z,1000.17
2022-11-16T23:43:45.824Z,1000.21
2022-11-16T23:48:52.955Z,1000.21
2022-11-16T23:54:00.246Z,1000.16
2022-11-16T23:59:07.498Z,999.99
